sensor_id;sensor_type;location;lat;lon;timestamp;pressure;altitude;pressure_sealevel;temperature;humidity
11413;BME280;5762;43.256;26.960;2023-05-21T00:01:31;99399.76;;;17.57;100.00
11413;BME280;5762;43.256;26.960;2023-05-21T00:04:00;99398.03;;;17.59;100.00
11413;BME280;5762;43.256;26.960;2023-05-21T00:06:29;99396.17;;;17.47;100.00
11413;BME280;5762;43.256;26.960;2023-05-21T00:08:58;99398.42;;;17.51;100.00
11413;BME280;5762;43.256;26.960;2023-05-21T00:11:27;99391.49;;;17.48;100.00
11413;BME280;5762;43.256;26.960;2023-05-21T00:13:56;99395.16;;;17.46;100.00
11413;BME280;5762;43.256;26.960;2023-05-21T00:16:25;99384.69;;;17.41;100.00
11413;BME280;5762;43.256;26.960;2023-05-21T00:18:53;99387.20;;;17.40;100.00
11413;BME280;5762;43.256;26.960;2023-05-21T00:21:22;99382.56;;;17.35;100.00
11413;BME280;5762;43.256;26.960;2023-05-21T00:23:51;99387.75;;;17.30;100.00
11413;BME280;5762;43.256;26.960;2023-05-21T00:26:23;99385.14;;;17.28;100.00
11413;BME280;5762;43.256;26.960;2023-05-21T00:28:52;99384.34;;;17.27;100.00
11413;BME280;5762;43.256;26.960;2023-05-21T00:31:20;99375.60;;;17.22;100.00
11413;BME280;5762;43.256;26.960;2023-05-21T00:33:49;99383.80;;;17.22;100.00
11413;BME280;5762;43.256;26.960;2023-05-21T00:36:17;99376.65;;;17.17;100.00
11413;BME280;5762;43.256;26.960;2023-05-21T00:38:46;99369.05;;;17.11;100.00
11413;BME280;5762;43.256;26.960;2023-05-21T00:41:16;99366.69;;;17.03;100.00
11413;BME280;5762;43.256;26.960;2023-05-21T00:43:44;99368.28;;;17.04;100.00
11413;BME280;5762;43.256;26.960;2023-05-21T00:46:15;99370.18;;;16.94;100.00
11413;BME280;5762;43.256;26.960;2023-05-21T00:48:44;99364.23;;;16.98;100.00
11413;BME280;5762;43.256;26.960;2023-05-21T00:51:13;99367.73;;;16.98;100.00
11413;BME280;5762;43.256;26.960;2023-05-21T00:53:43;99366.97;;;16.98;100.00
11413;BME280;5762;43.256;26.960;2023-05-21T00:56:12;99364.27;;;16.92;100.00
11413;BME280;5762;43.256;26.960;2023-05-21T00:58:40;99366.45;;;16.86;100.00
11413;BME280;5762;43.256;26.960;2023-05-21T01:01:09;99356.78;;;16.83;100.00
11413;BME280;5762;43.256;26.960;2023-05-21T01:03:38;99353.61;;;16.81;100.00
11413;BME280;5762;43.256;26.960;2023-05-21T01:06:08;99355.99;;;16.82;100.00
11413;BME280;5762;43.256;26.960;2023-05-21T01:08:37;99354.55;;;16.72;100.00
11413;BME280;5762;43.256;26.960;2023-05-21T01:11:07;99353.20;;;16.66;100.00
11413;BME280;5762;43.256;26.960;2023-05-21T01:13:37;99350.59;;;16.64;100.00
11413;BME280;5762;43.256;26.960;2023-05-21T01:16:06;99351.73;;;16.63;100.00
11413;BME280;5762;43.256;26.960;2023-05-21T01:18:36;99347.88;;;16.58;100.00
11413;BME280;5762;43.256;26.960;2023-05-21T01:21:05;99338.66;;;16.56;100.00
11413;BME280;5762;43.256;26.960;2023-05-21T01:23:35;99336.63;;;16.53;100.00
11413;BME280;5762;43.256;26.960;2023-05-21T01:26:03;99346.42;;;16.48;100.00
11413;BME280;5762;43.256;26.960;2023-05-21T01:28:32;99343.36;;;16.43;100.00
11413;BME280;5762;43.256;26.960;2023-05-21T01:31:02;99344.05;;;16.40;100.00
11413;BME280;5762;43.256;26.960;2023-05-21T01:33:32;99338.73;;;16.32;100.00
11413;BME280;5762;43.256;26.960;2023-05-21T01:36:01;99332.58;;;16.35;100.00
11413;BME280;5762;43.256;26.960;2023-05-21T01:41:06;99333.55;;;16.21;100.00
11413;BME280;5762;43.256;26.960;2023-05-21T01:43:33;99329.13;;;16.10;100.00
11413;BME280;5762;43.256;26.960;2023-05-21T01:46:02;99323.09;;;16.11;100.00
11413;BME280;5762;43.256;26.960;2023-05-21T01:48:32;99325.50;;;16.00;100.00
11413;BME280;5762;43.256;26.960;2023-05-21T01:51:02;99326.98;;;15.97;100.00
11413;BME280;5762;43.256;26.960;2023-05-21T01:53:31;99326.30;;;15.94;100.00
11413;BME280;5762;43.256;26.960;2023-05-21T01:56:00;99324.41;;;15.89;100.00
11413;BME280;5762;43.256;26.960;2023-05-21T01:58:28;99333.61;;;15.90;100.00
11413;BME280;5762;43.256;26.960;2023-05-21T02:00:57;99332.14;;;15.87;100.00
11413;BME280;5762;43.256;26.960;2023-05-21T02:03:26;99328.95;;;15.79;100.00
11413;BME280;5762;43.256;26.960;2023-05-21T02:05:55;99330.89;;;15.84;100.00
11413;BME280;5762;43.256;26.960;2023-05-21T02:08:24;99332.02;;;15.77;100.00
11413;BME280;5762;43.256;26.960;2023-05-21T02:10:53;99329.64;;;15.75;100.00
11413;BME280;5762;43.256;26.960;2023-05-21T02:13:22;99335.20;;;15.73;100.00
11413;BME280;5762;43.256;26.960;2023-05-21T02:15:51;99332.81;;;15.71;100.00
11413;BME280;5762;43.256;26.960;2023-05-21T02:18:20;99338.39;;;15.63;100.00
11413;BME280;5762;43.256;26.960;2023-05-21T02:20:49;99331.11;;;15.55;100.00
11413;BME280;5762;43.256;26.960;2023-05-21T02:23:18;99336.79;;;15.56;100.00
11413;BME280;5762;43.256;26.960;2023-05-21T02:25:47;99343.82;;;15.45;100.00
11413;BME280;5762;43.256;26.960;2023-05-21T02:28:16;99347.11;;;15.38;100.00
11413;BME280;5762;43.256;26.960;2023-05-21T02:30:44;99350.75;;;15.42;100.00
11413;BME280;5762;43.256;26.960;2023-05-21T02:33:14;99353.34;;;15.32;100.00
11413;BME280;5762;43.256;26.960;2023-05-21T02:35:43;99351.30;;;15.29;100.00
11413;BME280;5762;43.256;26.960;2023-05-21T02:38:12;99358.78;;;15.26;100.00
11413;BME280;5762;43.256;26.960;2023-05-21T02:40:41;99357.33;;;15.23;100.00
11413;BME280;5762;43.256;26.960;2023-05-21T02:43:10;99358.13;;;15.23;100.00
11413;BME280;5762;43.256;26.960;2023-05-21T02:45:38;99360.63;;;15.22;100.00
11413;BME280;5762;43.256;26.960;2023-05-21T02:48:07;99365.95;;;15.19;100.00
11413;BME280;5762;43.256;26.960;2023-05-21T02:50:35;99371.17;;;15.18;100.00
11413;BME280;5762;43.256;26.960;2023-05-21T02:53:03;99368.22;;;15.17;100.00
11413;BME280;5762;43.256;26.960;2023-05-21T02:55:33;99368.55;;;15.15;100.00
11413;BME280;5762;43.256;26.960;2023-05-21T02:58:01;99379.90;;;15.11;100.00
11413;BME280;5762;43.256;26.960;2023-05-21T03:00:30;99377.05;;;15.07;100.00
11413;BME280;5762;43.256;26.960;2023-05-21T03:02:59;99375.78;;;15.05;100.00
11413;BME280;5762;43.256;26.960;2023-05-21T03:05:27;99370.11;;;15.04;100.00
11413;BME280;5762;43.256;26.960;2023-05-21T03:07:56;99377.81;;;15.02;100.00
11413;BME280;5762;43.256;26.960;2023-05-21T03:10:25;99373.04;;;14.99;100.00
11413;BME280;5762;43.256;26.960;2023-05-21T03:12:54;99380.73;;;14.91;100.00
11413;BME280;5762;43.256;26.960;2023-05-21T03:15:23;99378.23;;;14.92;100.00
11413;BME280;5762;43.256;26.960;2023-05-21T03:17:52;99380.06;;;14.94;100.00
11413;BME280;5762;43.256;26.960;2023-05-21T03:20:20;99384.84;;;14.97;100.00
11413;BME280;5762;43.256;26.960;2023-05-21T03:22:49;99382.58;;;14.99;100.00
11413;BME280;5762;43.256;26.960;2023-05-21T03:25:18;99389.95;;;14.98;100.00
11413;BME280;5762;43.256;26.960;2023-05-21T03:27:47;99387.69;;;15.00;100.00
11413;BME280;5762;43.256;26.960;2023-05-21T03:30:16;99383.73;;;15.04;100.00
11413;BME280;5762;43.256;26.960;2023-05-21T03:32:48;99388.83;;;14.99;100.00
11413;BME280;5762;43.256;26.960;2023-05-21T03:35:16;99383.73;;;15.04;100.00
11413;BME280;5762;43.256;26.960;2023-05-21T03:37:45;99388.84;;;15.05;100.00
11413;BME280;5762;43.256;26.960;2023-05-21T03:40:13;99383.63;;;15.06;100.00
11413;BME280;5762;43.256;26.960;2023-05-21T03:42:42;99385.58;;;15.12;100.00
11413;BME280;5762;43.256;26.960;2023-05-21T03:45:11;99387.86;;;15.16;100.00
11413;BME280;5762;43.256;26.960;2023-05-21T03:47:40;99385.72;;;15.22;100.00
11413;BME280;5762;43.256;26.960;2023-05-21T03:50:09;99377.99;;;15.30;100.00
11413;BME280;5762;43.256;26.960;2023-05-21T03:52:38;99382.89;;;15.36;100.00
11413;BME280;5762;43.256;26.960;2023-05-21T03:55:07;99378.70;;;15.45;100.00
11413;BME280;5762;43.256;26.960;2023-05-21T03:57:36;99370.99;;;15.53;100.00
11413;BME280;5762;43.256;26.960;2023-05-21T04:00:05;99365.22;;;15.67;100.00
11413;BME280;5762;43.256;26.960;2023-05-21T04:02:34;99363.63;;;15.78;100.00
11413;BME280;5762;43.256;26.960;2023-05-21T04:05:03;99364.20;;;15.90;100.00
11413;BME280;5762;43.256;26.960;2023-05-21T04:07:32;99365.30;;;16.01;100.00
11413;BME280;5762;43.256;26.960;2023-05-21T04:10:01;99363.36;;;16.14;100.00
11413;BME280;5762;43.256;26.960;2023-05-21T04:12:30;99355.95;;;16.26;100.00
11413;BME280;5762;43.256;26.960;2023-05-21T04:14:59;99351.00;;;16.38;100.00
11413;BME280;5762;43.256;26.960;2023-05-21T04:17:28;99352.55;;;16.57;100.00
11413;BME280;5762;43.256;26.960;2023-05-21T04:19:57;99349.88;;;16.73;100.00
11413;BME280;5762;43.256;26.960;2023-05-21T04:22:26;99349.25;;;16.86;100.00
11413;BME280;5762;43.256;26.960;2023-05-21T04:24:55;99348.75;;;16.96;100.00
11413;BME280;5762;43.256;26.960;2023-05-21T04:27:24;99348.44;;;16.91;100.00
11413;BME280;5762;43.256;26.960;2023-05-21T04:29:53;99348.09;;;16.93;100.00
11413;BME280;5762;43.256;26.960;2023-05-21T04:32:22;99346.27;;;16.91;100.00
11413;BME280;5762;43.256;26.960;2023-05-21T04:34:50;99343.91;;;16.83;100.00
11413;BME280;5762;43.256;26.960;2023-05-21T04:37:19;99351.64;;;16.87;100.00
11413;BME280;5762;43.256;26.960;2023-05-21T04:39:48;99354.16;;;16.86;100.00
11413;BME280;5762;43.256;26.960;2023-05-21T04:42:16;99363.94;;;16.87;100.00
11413;BME280;5762;43.256;26.960;2023-05-21T04:44:45;99363.73;;;17.02;100.00
11413;BME280;5762;43.256;26.960;2023-05-21T04:47:16;99366.19;;;17.13;100.00
11413;BME280;5762;43.256;26.960;2023-05-21T04:49:47;99361.77;;;17.30;100.00
11413;BME280;5762;43.256;26.960;2023-05-21T04:52:16;99362.27;;;17.36;100.00
11413;BME280;5762;43.256;26.960;2023-05-21T04:54:45;99359.63;;;17.39;100.00
11413;BME280;5762;43.256;26.960;2023-05-21T04:57:13;99363.82;;;17.43;100.00
11413;BME280;5762;43.256;26.960;2023-05-21T04:59:42;99367.41;;;17.53;100.00
11413;BME280;5762;43.256;26.960;2023-05-21T05:02:12;99362.46;;;17.59;100.00
11413;BME280;5762;43.256;26.960;2023-05-21T05:04:40;99366.44;;;17.61;100.00
11413;BME280;5762;43.256;26.960;2023-05-21T05:07:09;99362.91;;;17.77;100.00
11413;BME280;5762;43.256;26.960;2023-05-21T05:09:38;99363.17;;;17.71;100.00
11413;BME280;5762;43.256;26.960;2023-05-21T05:12:06;99360.66;;;17.72;100.00
11413;BME280;5762;43.256;26.960;2023-05-21T05:14:35;99367.05;;;17.86;100.00
11413;BME280;5762;43.256;26.960;2023-05-21T05:17:04;99366.51;;;17.96;100.00
11413;BME280;5762;43.256;26.960;2023-05-21T05:19:33;99366.45;;;18.12;100.00
11413;BME280;5762;43.256;26.960;2023-05-21T05:22:02;99360.15;;;18.27;100.00
11413;BME280;5762;43.256;26.960;2023-05-21T05:24:31;99363.03;;;18.44;100.00
11413;BME280;5762;43.256;26.960;2023-05-21T05:27:00;99364.77;;;18.52;100.00
11413;BME280;5762;43.256;26.960;2023-05-21T05:29:28;99362.22;;;18.69;100.00
11413;BME280;5762;43.256;26.960;2023-05-21T05:31:57;99367.96;;;18.93;100.00
11413;BME280;5762;43.256;26.960;2023-05-21T05:34:26;99362.11;;;19.04;100.00
11413;BME280;5762;43.256;26.960;2023-05-21T05:36:55;99376.55;;;19.01;100.00
11413;BME280;5762;43.256;26.960;2023-05-21T05:39:24;99364.09;;;19.07;100.00
11413;BME280;5762;43.256;26.960;2023-05-21T05:41:53;99356.99;;;19.25;100.00
11413;BME280;5762;43.256;26.960;2023-05-21T05:44:22;99363.13;;;19.41;100.00
11413;BME280;5762;43.256;26.960;2023-05-21T05:46:51;99370.13;;;19.49;100.00
11413;BME280;5762;43.256;26.960;2023-05-21T05:49:20;99377.84;;;19.62;100.00
11413;BME280;5762;43.256;26.960;2023-05-21T05:51:48;99369.23;;;19.77;100.00
11413;BME280;5762;43.256;26.960;2023-05-21T05:54:17;99367.51;;;19.92;100.00
11413;BME280;5762;43.256;26.960;2023-05-21T05:56:46;99369.31;;;20.07;100.00
11413;BME280;5762;43.256;26.960;2023-05-21T05:59:15;99369.13;;;20.23;100.00
11413;BME280;5762;43.256;26.960;2023-05-21T06:01:43;99368.07;;;20.18;100.00
11413;BME280;5762;43.256;26.960;2023-05-21T06:04:12;99367.52;;;20.05;100.00
11413;BME280;5762;43.256;26.960;2023-05-21T06:06:41;99367.97;;;20.11;100.00
11413;BME280;5762;43.256;26.960;2023-05-21T06:09:10;99369.69;;;20.05;100.00
11413;BME280;5762;43.256;26.960;2023-05-21T06:11:39;99370.50;;;20.23;100.00
11413;BME280;5762;43.256;26.960;2023-05-21T06:14:07;99369.12;;;20.36;100.00
11413;BME280;5762;43.256;26.960;2023-05-21T06:16:36;99373.25;;;20.66;100.00
11413;BME280;5762;43.256;26.960;2023-05-21T06:19:05;99372.86;;;20.84;100.00
11413;BME280;5762;43.256;26.960;2023-05-21T06:21:33;99364.53;;;20.94;100.00
11413;BME280;5762;43.256;26.960;2023-05-21T06:24:01;99354.81;;;21.03;100.00
11413;BME280;5762;43.256;26.960;2023-05-21T06:26:30;99360.03;;;20.95;100.00
11413;BME280;5762;43.256;26.960;2023-05-21T06:28:59;99345.86;;;20.93;100.00
11413;BME280;5762;43.256;26.960;2023-05-21T06:31:28;99348.56;;;20.90;100.00
11413;BME280;5762;43.256;26.960;2023-05-21T06:33:57;99348.94;;;21.05;100.00
11413;BME280;5762;43.256;26.960;2023-05-21T06:36:26;99336.42;;;21.11;100.00
11413;BME280;5762;43.256;26.960;2023-05-21T06:38:55;99336.84;;;21.17;100.00
11413;BME280;5762;43.256;26.960;2023-05-21T06:41:24;99331.34;;;21.33;100.00
11413;BME280;5762;43.256;26.960;2023-05-21T06:43:53;99339.59;;;21.33;100.00
11413;BME280;5762;43.256;26.960;2023-05-21T06:46:22;99333.71;;;21.18;100.00
11413;BME280;5762;43.256;26.960;2023-05-21T06:48:52;99335.59;;;21.07;100.00
11413;BME280;5762;43.256;26.960;2023-05-21T06:51:20;99331.10;;;20.92;100.00
11413;BME280;5762;43.256;26.960;2023-05-21T06:53:48;99328.10;;;20.87;100.00
11413;BME280;5762;43.256;26.960;2023-05-21T06:56:17;99338.19;;;20.93;100.00
11413;BME280;5762;43.256;26.960;2023-05-21T06:58:46;99337.42;;;21.16;100.00
11413;BME280;5762;43.256;26.960;2023-05-21T07:01:14;99334.26;;;21.31;100.00
11413;BME280;5762;43.256;26.960;2023-05-21T07:03:42;99334.43;;;21.28;100.00
11413;BME280;5762;43.256;26.960;2023-05-21T07:06:11;99338.65;;;21.63;100.00
11413;BME280;5762;43.256;26.960;2023-05-21T07:08:40;99338.20;;;21.85;100.00
11413;BME280;5762;43.256;26.960;2023-05-21T07:11:09;99340.19;;;22.12;100.00
11413;BME280;5762;43.256;26.960;2023-05-21T07:13:37;99332.55;;;22.22;100.00
11413;BME280;5762;43.256;26.960;2023-05-21T07:16:06;99333.78;;;22.31;100.00
11413;BME280;5762;43.256;26.960;2023-05-21T07:18:35;99330.07;;;22.37;100.00
11413;BME280;5762;43.256;26.960;2023-05-21T07:21:03;99327.77;;;22.57;100.00
11413;BME280;5762;43.256;26.960;2023-05-21T07:23:32;99334.65;;;22.53;100.00
11413;BME280;5762;43.256;26.960;2023-05-21T07:26:01;99329.48;;;22.83;100.00
11413;BME280;5762;43.256;26.960;2023-05-21T07:28:31;99330.70;;;23.03;100.00
11413;BME280;5762;43.256;26.960;2023-05-21T07:30:59;99330.72;;;23.14;100.00
11413;BME280;5762;43.256;26.960;2023-05-21T07:33:27;99330.67;;;22.96;100.00
11413;BME280;5762;43.256;26.960;2023-05-21T07:35:56;99331.44;;;22.89;100.00
11413;BME280;5762;43.256;26.960;2023-05-21T07:38:24;99321.94;;;22.76;100.00
11413;BME280;5762;43.256;26.960;2023-05-21T07:40:52;99322.22;;;23.23;100.00
11413;BME280;5762;43.256;26.960;2023-05-21T07:43:22;99326.57;;;23.28;100.00
11413;BME280;5762;43.256;26.960;2023-05-21T07:45:51;99317.91;;;23.36;100.00
11413;BME280;5762;43.256;26.960;2023-05-21T07:48:19;99332.55;;;23.55;100.00
11413;BME280;5762;43.256;26.960;2023-05-21T07:50:47;99326.59;;;23.60;100.00
11413;BME280;5762;43.256;26.960;2023-05-21T07:53:17;99329.75;;;23.87;100.00
11413;BME280;5762;43.256;26.960;2023-05-21T07:55:46;99333.56;;;24.39;100.00
11413;BME280;5762;43.256;26.960;2023-05-21T07:58:15;99332.05;;;24.67;100.00
11413;BME280;5762;43.256;26.960;2023-05-21T08:00:44;99325.36;;;24.61;100.00
11413;BME280;5762;43.256;26.960;2023-05-21T08:03:14;99327.64;;;24.81;100.00
11413;BME280;5762;43.256;26.960;2023-05-21T08:05:43;99321.91;;;24.80;100.00
11413;BME280;5762;43.256;26.960;2023-05-21T08:08:18;99334.22;;;25.08;100.00
11413;BME280;5762;43.256;26.960;2023-05-21T08:10:43;99339.44;;;24.95;100.00
11413;BME280;5762;43.256;26.960;2023-05-21T08:13:14;99336.45;;;24.98;100.00
11413;BME280;5762;43.256;26.960;2023-05-21T08:15:42;99340.51;;;25.16;100.00
11413;BME280;5762;43.256;26.960;2023-05-21T08:18:11;99342.02;;;25.27;98.62
11413;BME280;5762;43.256;26.960;2023-05-21T08:20:39;99338.84;;;24.96;99.46
11413;BME280;5762;43.256;26.960;2023-05-21T08:23:08;99339.56;;;24.67;98.45
11413;BME280;5762;43.256;26.960;2023-05-21T08:25:37;99337.87;;;24.54;100.00
11413;BME280;5762;43.256;26.960;2023-05-21T08:28:06;99331.80;;;24.37;100.00
11413;BME280;5762;43.256;26.960;2023-05-21T08:30:35;99320.13;;;24.41;100.00
11413;BME280;5762;43.256;26.960;2023-05-21T08:33:03;99324.83;;;24.51;100.00
11413;BME280;5762;43.256;26.960;2023-05-21T08:35:32;99326.48;;;24.75;100.00
11413;BME280;5762;43.256;26.960;2023-05-21T08:38:00;99326.70;;;25.09;100.00
11413;BME280;5762;43.256;26.960;2023-05-21T08:40:29;99325.72;;;25.07;100.00
11413;BME280;5762;43.256;26.960;2023-05-21T08:42:58;99330.99;;;24.84;100.00
11413;BME280;5762;43.256;26.960;2023-05-21T08:45:27;99331.25;;;24.70;100.00
11413;BME280;5762;43.256;26.960;2023-05-21T08:47:57;99329.22;;;24.38;100.00
11413;BME280;5762;43.256;26.960;2023-05-21T08:50:26;99336.19;;;24.20;100.00
11413;BME280;5762;43.256;26.960;2023-05-21T08:52:55;99331.67;;;24.00;100.00
11413;BME280;5762;43.256;26.960;2023-05-21T08:55:25;99324.42;;;23.81;100.00
11413;BME280;5762;43.256;26.960;2023-05-21T08:57:54;99337.41;;;23.98;100.00
11413;BME280;5762;43.256;26.960;2023-05-21T09:00:23;99327.30;;;24.17;100.00
11413;BME280;5762;43.256;26.960;2023-05-21T09:02:52;99328.95;;;23.90;100.00
11413;BME280;5762;43.256;26.960;2023-05-21T09:05:20;99331.84;;;24.19;100.00
11413;BME280;5762;43.256;26.960;2023-05-21T09:07:58;99330.45;;;24.19;100.00
11413;BME280;5762;43.256;26.960;2023-05-21T09:10:28;99328.42;;;24.41;100.00
11413;BME280;5762;43.256;26.960;2023-05-21T09:12:55;99330.27;;;24.69;100.00
11413;BME280;5762;43.256;26.960;2023-05-21T09:15:24;99335.94;;;24.41;100.00
11413;BME280;5762;43.256;26.960;2023-05-21T09:17:53;99321.08;;;24.50;100.00
11413;BME280;5762;43.256;26.960;2023-05-21T09:20:26;99325.59;;;24.95;100.00
11413;BME280;5762;43.256;26.960;2023-05-21T09:22:54;99328.45;;;25.14;100.00
11413;BME280;5762;43.256;26.960;2023-05-21T09:25:24;99329.43;;;25.16;100.00
11413;BME280;5762;43.256;26.960;2023-05-21T09:27:55;99310.41;;;24.88;100.00
11413;BME280;5762;43.256;26.960;2023-05-21T09:30:24;99312.78;;;24.86;100.00
11413;BME280;5762;43.256;26.960;2023-05-21T09:32:58;99309.88;;;24.75;100.00
11413;BME280;5762;43.256;26.960;2023-05-21T09:35:23;99314.23;;;24.76;100.00
11413;BME280;5762;43.256;26.960;2023-05-21T09:37:52;99313.81;;;25.14;100.00
11413;BME280;5762;43.256;26.960;2023-05-21T09:40:21;99310.41;;;25.44;99.42
11413;BME280;5762;43.256;26.960;2023-05-21T09:42:50;99309.86;;;25.63;100.00
11413;BME280;5762;43.256;26.960;2023-05-21T09:45:23;99312.19;;;25.20;100.00
11413;BME280;5762;43.256;26.960;2023-05-21T09:47:52;99316.34;;;24.87;100.00
11413;BME280;5762;43.256;26.960;2023-05-21T09:50:22;99316.28;;;24.97;99.53
11413;BME280;5762;43.256;26.960;2023-05-21T09:52:51;99309.02;;;24.88;93.23
11413;BME280;5762;43.256;26.960;2023-05-21T09:55:25;99326.03;;;24.87;96.01
11413;BME280;5762;43.256;26.960;2023-05-21T09:57:53;99337.33;;;24.81;94.09
11413;BME280;5762;43.256;26.960;2023-05-21T10:00:26;99326.11;;;24.69;93.59
11413;BME280;5762;43.256;26.960;2023-05-21T10:02:56;99323.03;;;24.56;94.94
11413;BME280;5762;43.256;26.960;2023-05-21T10:05:26;99320.19;;;24.67;93.42
11413;BME280;5762;43.256;26.960;2023-05-21T10:07:59;99331.44;;;24.71;87.95
11413;BME280;5762;43.256;26.960;2023-05-21T10:10:29;99327.36;;;24.97;86.27
11413;BME280;5762;43.256;26.960;2023-05-21T10:12:58;99338.19;;;25.07;83.71
11413;BME280;5762;43.256;26.960;2023-05-21T10:15:28;99333.62;;;25.09;81.75
11413;BME280;5762;43.256;26.960;2023-05-21T10:17:59;99331.77;;;24.88;81.78
11413;BME280;5762;43.256;26.960;2023-05-21T10:20:28;99328.99;;;24.88;80.93
11413;BME280;5762;43.256;26.960;2023-05-21T10:22:57;99330.19;;;24.87;79.91
11413;BME280;5762;43.256;26.960;2023-05-21T10:25:26;99333.27;;;25.03;84.56
11413;BME280;5762;43.256;26.960;2023-05-21T10:27:55;99328.22;;;25.20;88.10
11413;BME280;5762;43.256;26.960;2023-05-21T10:30:24;99327.16;;;25.29;88.51
11413;BME280;5762;43.256;26.960;2023-05-21T10:32:54;99335.14;;;25.20;82.13
11413;BME280;5762;43.256;26.960;2023-05-21T10:35:22;99333.62;;;25.09;91.89
11413;BME280;5762;43.256;26.960;2023-05-21T10:37:52;99335.49;;;24.93;93.83
11413;BME280;5762;43.256;26.960;2023-05-21T10:40:21;99333.38;;;24.82;94.13
11413;BME280;5762;43.256;26.960;2023-05-21T10:43:08;99329.51;;;24.61;90.53
11413;BME280;5762;43.256;26.960;2023-05-21T10:45:42;99330.53;;;24.59;99.78
11413;BME280;5762;43.256;26.960;2023-05-21T10:51:06;99326.19;;;24.95;81.31
11413;BME280;5762;43.256;26.960;2023-05-21T11:01:35;99340.69;;;26.32;67.27
11413;BME280;5762;43.256;26.960;2023-05-21T11:04:04;99351.61;;;26.27;60.96
11413;BME280;5762;43.256;26.960;2023-05-21T11:06:33;99349.59;;;26.65;64.20
11413;BME280;5762;43.256;26.960;2023-05-21T11:09:14;99342.72;;;26.43;64.53
11413;BME280;5762;43.256;26.960;2023-05-21T11:11:44;99347.47;;;26.05;73.77
11413;BME280;5762;43.256;26.960;2023-05-21T11:14:32;99338.19;;;25.85;69.26
11413;BME280;5762;43.256;26.960;2023-05-21T11:17:02;99344.33;;;26.03;71.46
11413;BME280;5762;43.256;26.960;2023-05-21T11:19:38;99340.16;;;26.03;69.66
11413;BME280;5762;43.256;26.960;2023-05-21T11:22:19;99336.11;;;25.48;76.87
11413;BME280;5762;43.256;26.960;2023-05-21T11:24:39;99333.44;;;25.33;86.02
11413;BME280;5762;43.256;26.960;2023-05-21T11:27:07;99331.25;;;25.62;80.03
11413;BME280;5762;43.256;26.960;2023-05-21T11:29:40;99335.28;;;25.99;72.63
11413;BME280;5762;43.256;26.960;2023-05-21T11:32:10;99315.88;;;26.14;65.39
11413;BME280;5762;43.256;26.960;2023-05-21T11:34:43;99326.62;;;26.46;74.15
11413;BME280;5762;43.256;26.960;2023-05-21T11:39:45;99323.45;;;26.29;71.45
11413;BME280;5762;43.256;26.960;2023-05-21T11:42:26;99320.41;;;25.79;77.08
11413;BME280;5762;43.256;26.960;2023-05-21T11:44:56;99330.62;;;25.66;80.88
11413;BME280;5762;43.256;26.960;2023-05-21T11:47:26;99321.63;;;25.29;84.98
11413;BME280;5762;43.256;26.960;2023-05-21T11:49:55;99325.83;;;25.22;86.05
11413;BME280;5762;43.256;26.960;2023-05-21T11:52:23;99322.46;;;25.23;85.80
11413;BME280;5762;43.256;26.960;2023-05-21T11:54:53;99312.14;;;25.27;83.46
11413;BME280;5762;43.256;26.960;2023-05-21T11:57:26;99307.06;;;25.18;86.31
11413;BME280;5762;43.256;26.960;2023-05-21T11:59:55;99313.34;;;24.93;85.52
11413;BME280;5762;43.256;26.960;2023-05-21T12:02:30;99300.50;;;24.91;82.61
11413;BME280;5762;43.256;26.960;2023-05-21T12:04:56;99294.08;;;24.71;83.11
11413;BME280;5762;43.256;26.960;2023-05-21T12:07:26;99290.54;;;24.67;81.45
11413;BME280;5762;43.256;26.960;2023-05-21T12:09:59;99282.02;;;25.07;82.33
11413;BME280;5762;43.256;26.960;2023-05-21T12:12:27;99273.85;;;25.82;79.88
11413;BME280;5762;43.256;26.960;2023-05-21T12:14:56;99273.89;;;25.97;78.52
11413;BME280;5762;43.256;26.960;2023-05-21T12:17:25;99275.51;;;25.94;78.93
11413;BME280;5762;43.256;26.960;2023-05-21T12:19:54;99284.39;;;26.13;76.54
11413;BME280;5762;43.256;26.960;2023-05-21T12:22:26;99289.83;;;26.04;68.52
11413;BME280;5762;43.256;26.960;2023-05-21T12:24:55;99286.22;;;25.92;69.08
11413;BME280;5762;43.256;26.960;2023-05-21T12:27:24;99276.78;;;26.20;72.36
11413;BME280;5762;43.256;26.960;2023-05-21T12:29:53;99279.72;;;26.40;67.28
11413;BME280;5762;43.256;26.960;2023-05-21T12:32:22;99290.57;;;26.73;70.08
11413;BME280;5762;43.256;26.960;2023-05-21T12:34:52;99278.91;;;26.70;63.13
11413;BME280;5762;43.256;26.960;2023-05-21T12:37:25;99287.84;;;26.85;61.70
11413;BME280;5762;43.256;26.960;2023-05-21T12:39:56;99285.92;;;26.51;64.25
11413;BME280;5762;43.256;26.960;2023-05-21T12:42:27;99281.31;;;26.83;66.06
11413;BME280;5762;43.256;26.960;2023-05-21T12:44:56;99291.16;;;26.88;67.71
11413;BME280;5762;43.256;26.960;2023-05-21T12:47:25;99294.31;;;26.90;67.17
11413;BME280;5762;43.256;26.960;2023-05-21T12:49:58;99297.84;;;26.79;63.32
11413;BME280;5762;43.256;26.960;2023-05-21T12:52:27;99292.87;;;26.51;63.60
11413;BME280;5762;43.256;26.960;2023-05-21T12:54:56;99294.23;;;26.36;63.38
11413;BME280;5762;43.256;26.960;2023-05-21T12:57:26;99295.32;;;26.30;64.22
11413;BME280;5762;43.256;26.960;2023-05-21T12:59:59;99288.47;;;26.54;68.35
11413;BME280;5762;43.256;26.960;2023-05-21T13:02:31;99299.91;;;25.69;70.40
11413;BME280;5762;43.256;26.960;2023-05-21T13:05:04;99303.50;;;25.66;70.84
11413;BME280;5762;43.256;26.960;2023-05-21T13:07:38;99294.25;;;25.35;77.02
11413;BME280;5762;43.256;26.960;2023-05-21T13:10:02;99294.81;;;25.16;78.24
11413;BME280;5762;43.256;26.960;2023-05-21T13:12:32;99289.14;;;24.71;84.34
11413;BME280;5762;43.256;26.960;2023-05-21T13:15:01;99285.03;;;24.17;88.67
11413;BME280;5762;43.256;26.960;2023-05-21T13:17:31;99279.48;;;24.24;91.64
11413;BME280;5762;43.256;26.960;2023-05-21T13:22:42;99285.09;;;24.90;87.14